Baltimore, MD

5:14 PM EST on January 28, 2015 (GMT -0500)
Federal Hill South | Change Station
CLOSE
Current Station
Personal Weather Station
Location: Baltimore, MD
Elevation: 62 ft
Nearby Weather Stations

Elev 62 ft 39.27 °N, 76.61 °W | Updated 11 minutes ago

Clear
Clear
34.2 °F
Feels Like 30 °F
N
4.7
Wind Variable Wind from NE

Today
High -- | Low -- °F
--% Chance of Precip.
Yesterday
High -- | Low -- °F
Precip. -- in
7:17 AM 5:22 PM
Waxing Gibbous, 68% visible
Pressure 30.24 in
Visibility 10.0 miles
Clouds Few 25000 ft
Windchill 30 °F
Dew Point 33 °F
Humidity 94%
Rainfall 0.00 in
Snow Depth Not available.
UV 0 out of 12
Pollen .10 out of 12
Air Quality Not available.
Flu Activity Not available.
METAR KBWI 282154Z 29009KT 10SM FEW250 01/M14 A3024 RMK AO2 SLP240 T00061144

More Conditions Fewer Conditions

Pressure 30.24 in
Visibility 10.0 miles
Clouds Few 25000 ft
Windchill 30 °F
Dew Point 33 °F
Humidity 94%
Rainfall 0.00 in
Snow Depth Not available.
UV 0 out of 12
Pollen .10 out of 12
Air Quality Not available.
Flu Activity Not available.
METAR KBWI 282154Z 29009KT 10SM FEW250 01/M14 A3024 RMK AO2 SLP240 T00061144

More Conditions Fewer Conditions

10-Day Weather Forecast

Almanac

Astronomy

Jan. 28, 2015 Rise Set
Actual Time
Civil Twilight
Nautical Twilight
Astronomical Twilight
Moon
Length of Visible Light
Length of Day
Tomorrow will be .
, % of the Moon is Illuminated

Today's Extremes

State Highs State Lows

Community

WunderPhotos

Upload Photos

1,791,276 photos uploaded!

WunderBlogs® & News

Nearby

Air Quality

  Air Quality AQ Index Pollutant
Not available.

Snow Depth

Station Depth Elevation

Earthquake Activity

City Distance Mag. Time & Date
Minimum magnitude displayed is 2.5.

Coastal Water Temperatures

Place Temperature

Nearby Weather Stations